Terminal Aerodrome Forecast
Issued by NWS

Home | Current Version | Previous Version | Text Only | Print | Product List | Glossary On
Versions: 1 2 3 4 5 6 7 8 9 10 11 12 13
000
FTUS45 KRIW 291100
TAFCPR
TAF
KCPR 291121Z 2912/3012 34007KT P6SM VCSH SCT080 BKN100
     FM291400 VRB06KT P6SM SCT120
     FM292000 VRB10G15KT P6SM VCTS SCT080CB BKN120
     FM300200 08008KT P6SM VCSH SCT100 BKN150
     FM300800 22010KT P6SM SCT120=

USA.gov is the U.S. government's official web portal to all federal, state and local government web resources and services.